Time;durP1;ratioP1;P1;durP2;ratioP2;P2;SDS_P1;SDS_P2;PMS_P1;PMS_P2;Temp;Humidity;BMP_temperature;BMP_pressure;BME280_temperature;BME280_humidity;BME280_pressure;Samples;Min_cycle;Max_cycle;Signal;HPM_P1;HPM_P2
2022/07/17 00:02:07;;;;;;;3.75;2.47;;;;;;;17.09;48.09;99770.91;2622295;54;20031;-68
2022/07/17 00:04:39;;;;;;;4.53;2.60;;;;;;;17.15;48.05;99775.44;2623000;54;20041;-68
2022/07/17 00:07:09;;;;;;;3.40;2.78;;;;;;;17.22;48.31;99776.19;2621768;39;20434;-70
2022/07/17 00:09:39;;;;;;;9.60;3.10;;;;;;;17.26;48.21;99773.94;2619702;54;20526;-68
2022/07/17 00:12:09;;;;;;;3.55;2.28;;;;;;;17.06;48.77;99768.66;2619159;54;20099;-69
2022/07/17 00:14:39;;;;;;;4.50;2.50;;;;;;;16.93;49.14;99769.53;2619646;54;20041;-69
2022/07/17 00:17:09;;;;;;;8.57;2.65;;;;;;;16.92;49.22;99772.41;2621203;54;20033;-70
2022/07/17 00:19:41;;;;;;;3.72;2.28;;;;;;;16.87;49.65;99769.56;2621082;54;20038;-70
2022/07/17 00:22:11;;;;;;;4.32;1.90;;;;;;;16.90;49.27;99766.47;2621963;54;20557;-68
2022/07/17 00:24:41;;;;;;;2.40;2.10;;;;;;;16.91;49.63;99770.78;2621310;54;20042;-68
2022/07/17 00:27:10;;;;;;;2.60;2.17;;;;;;;16.89;49.23;99776.31;2621430;54;20026;-68
2022/07/17 00:29:40;;;;;;;2.90;2.30;;;;;;;16.83;49.49;99766.50;2622118;54;20078;-68
2022/07/17 00:32:10;;;;;;;7.47;2.75;;;;;;;16.88;49.27;99769.34;2622033;54;20022;-69
2022/07/17 00:34:42;;;;;;;2.45;2.22;;;;;;;16.81;49.83;99763.19;2620825;54;20122;-69
2022/07/17 00:37:12;;;;;;;4.70;2.40;;;;;;;16.81;49.77;99766.69;2620283;54;20580;-70
2022/07/17 00:39:41;;;;;;;2.85;2.30;;;;;;;16.77;49.85;99770.00;2619048;39;20426;-68
2022/07/17 00:42:13;;;;;;;3.00;2.45;;;;;;;16.78;49.68;99758.31;2620117;54;20673;-68
2022/07/17 00:44:44;;;;;;;4.68;2.58;;;;;;;16.54;50.08;99770.44;2620892;39;20458;-68
2022/07/17 00:47:15;;;;;;;3.08;2.40;;;;;;;16.37;50.50;99763.84;2619987;54;20034;-69
2022/07/17 00:49:48;;;;;;;3.38;2.00;;;;;;;16.41;51.05;99765.09;2619655;54;20439;-68
2022/07/17 00:52:19;;;;;;;5.95;2.22;;;;;;;16.43;50.95;99763.03;2619909;54;20039;-69
2022/07/17 00:54:49;;;;;;;9.85;2.70;;;;;;;16.45;50.62;99760.97;2620141;54;20033;-68
2022/07/17 00:57:42;;;;;;;3.25;2.15;;;;;;;16.44;50.88;99762.00;2620257;54;20038;-69
2022/07/17 01:00:13;;;;;;;3.35;1.95;;;;;;;16.33;50.99;99764.28;2619890;54;20023;-68
2022/07/17 01:02:42;;;;;;;3.85;1.98;;;;;;;16.05;51.59;99761.00;2620334;54;20046;-67
2022/07/17 01:05:15;;;;;;;2.72;2.10;;;;;;;16.00;52.01;99761.63;2620236;54;20065;-68
2022/07/17 01:07:50;;;;;;;3.70;1.92;;;;;;;16.05;51.70;99764.50;2620226;54;20587;-68
2022/07/17 01:10:20;;;;;;;2.97;1.80;;;;;;;15.98;51.76;99765.50;2619909;54;20034;-68
2022/07/17 01:12:50;;;;;;;4.10;2.17;;;;;;;15.88;51.87;99768.59;2620548;54;20065;-68
2022/07/17 01:15:20;;;;;;;2.95;2.17;;;;;;;15.77;51.87;99772.66;2621245;54;20043;-68
2022/07/17 01:17:50;;;;;;;3.40;2.63;;;;;;;15.72;52.14;99774.31;2619957;54;20576;-69
2022/07/17 01:20:23;;;;;;;3.42;2.30;;;;;;;15.72;52.44;99775.13;2620135;54;20073;-68
2022/07/17 01:22:55;;;;;;;3.63;2.50;;;;;;;15.67;52.54;99774.88;2620858;54;20617;-68
2022/07/17 01:25:26;;;;;;;2.40;2.20;;;;;;;15.68;52.29;99783.72;2618709;47;20034;-68
2022/07/17 01:27:56;;;;;;;3.03;2.25;;;;;;;15.68;52.37;99778.41;2618796;54;20030;-68
2022/07/17 01:30:26;;;;;;;4.22;2.40;;;;;;;15.65;52.50;99778.81;2618706;39;20422;-68
2022/07/17 01:32:56;;;;;;;3.55;1.95;;;;;;;15.63;52.86;99778.94;2618890;54;20031;-68
2022/07/17 01:35:25;;;;;;;4.53;2.30;;;;;;;15.49;52.63;99779.94;2619130;39;20428;-68
2022/07/17 01:37:58;;;;;;;3.60;2.60;;;;;;;15.40;53.05;99781.16;2619848;39;20148;-67
2022/07/17 01:40:27;;;;;;;3.15;2.30;;;;;;;15.32;53.26;99776.81;2619458;54;20542;-68
2022/07/17 01:42:57;;;;;;;3.47;2.30;;;;;;;15.40;53.18;99775.84;2619788;54;20031;-69
2022/07/17 01:45:27;;;;;;;3.67;2.20;;;;;;;15.35;53.00;99779.91;2620079;54;20022;-69
2022/07/17 01:47:57;;;;;;;3.30;2.40;;;;;;;15.38;53.14;99777.84;2619355;54;20034;-69
2022/07/17 01:50:26;;;;;;;3.53;2.28;;;;;;;15.50;52.92;99774.41;2619335;54;20030;-68
2022/07/17 01:52:59;;;;;;;2.95;2.65;;;;;;;15.48;52.57;99770.31;2619555;54;20026;-68
2022/07/17 01:55:28;;;;;;;8.27;2.67;;;;;;;15.40;53.18;99770.50;2618760;47;20027;-68
2022/07/17 01:57:58;;;;;;;5.03;2.47;;;;;;;15.41;53.17;99758.81;2619338;54;20029;-67
2022/07/17 02:00:28;;;;;;;4.43;2.30;;;;;;;15.27;53.34;99760.63;2619648;54;20038;-68
2022/07/17 02:02:58;;;;;;;2.38;2.17;;;;;;;15.23;53.56;99759.38;2620627;54;20034;-68
2022/07/17 02:05:27;;;;;;;3.70;2.53;;;;;;;15.12;53.82;99766.09;2620999;54;20034;-69
2022/07/17 02:08:00;;;;;;;3.13;2.17;;;;;;;15.20;53.85;99765.91;2622993;54;20034;-68
2022/07/17 02:10:29;;;;;;;3.33;2.15;;;;;;;15.29;53.71;99755.91;2625195;54;20035;-68
2022/07/17 02:12:59;;;;;;;4.68;2.67;;;;;;;15.27;53.63;99760.63;2624964;47;20023;-68
2022/07/17 02:15:29;;;;;;;3.67;1.80;;;;;;;14.99;54.19;99761.53;2626063;54;20023;-68
2022/07/17 02:17:59;;;;;;;2.65;2.20;;;;;;;14.98;54.26;99759.03;2625784;54;20031;-68
2022/07/17 02:20:29;;;;;;;4.38;2.47;;;;;;;15.03;54.36;99754.78;2625051;54;20034;-68
2022/07/17 02:23:01;;;;;;;2.80;2.22;;;;;;;14.99;54.03;99752.72;2625555;54;20042;-67
2022/07/17 02:25:31;;;;;;;4.65;2.38;;;;;;;14.91;54.55;99756.38;2624594;54;20045;-68
2022/07/17 02:28:01;;;;;;;4.47;2.42;;;;;;;14.82;54.57;99753.06;2623863;54;20034;-68
2022/07/17 02:30:30;;;;;;;3.88;2.28;;;;;;;14.84;54.51;99748.34;2622448;54;20035;-68
2022/07/17 02:33:00;;;;;;;3.80;2.00;;;;;;;14.76;54.77;99753.00;2624260;54;20034;-68
2022/07/17 02:35:30;;;;;;;3.40;2.15;;;;;;;14.55;55.32;99757.38;2625291;54;20030;-68
2022/07/17 02:38:02;;;;;;;2.95;2.65;;;;;;;14.48;55.50;99755.66;2624760;54;20130;-68
2022/07/17 02:40:32;;;;;;;2.92;2.40;;;;;;;14.45;56.04;99762.22;2623284;39;20406;-69
2022/07/17 02:43:01;;;;;;;2.22;2.00;;;;;;;14.45;56.15;99759.56;2621884;54;20022;-68
2022/07/17 02:45:31;;;;;;;2.53;2.33;;;;;;;14.56;55.90;99759.03;2622920;54;20034;-68
2022/07/17 02:48:01;;;;;;;3.20;2.13;;;;;;;14.54;55.84;99763.75;2620982;54;20046;-69
2022/07/17 02:50:30;;;;;;;2.20;2.00;;;;;;;14.45;55.79;99767.53;2620499;54;20563;-69
2022/07/17 02:53:02;;;;;;;2.55;2.10;;;;;;;14.46;55.65;99774.50;2619939;47;20022;-69
2022/07/17 02:55:32;;;;;;;4.78;2.58;;;;;;;14.51;55.62;99768.63;2619706;47;20522;-68
2022/07/17 02:58:01;;;;;;;4.78;2.15;;;;;;;14.56;55.76;99768.84;2620331;54;20041;-68
2022/07/17 03:00:31;;;;;;;3.22;2.33;;;;;;;14.57;55.71;99776.66;2621222;54;20038;-68
2022/07/17 03:03:01;;;;;;;4.32;2.00;;;;;;;14.47;55.53;99772.66;2622446;54;20022;-68
2022/07/17 03:05:31;;;;;;;4.50;2.42;;;;;;;14.28;55.99;99758.19;2623549;54;20049;-68
2022/07/17 03:08:03;;;;;;;3.47;2.33;;;;;;;14.16;56.49;99773.03;2623460;54;20553;-68
2022/07/17 03:10:33;;;;;;;4.07;2.42;;;;;;;14.13;56.90;99774.25;2623716;54;20022;-69
2022/07/17 03:13:02;;;;;;;3.92;3.20;;;;;;;14.25;56.63;99772.72;2624021;54;20026;-68
2022/07/17 03:15:32;;;;;;;3.17;2.38;;;;;;;14.18;56.51;99771.00;2623211;54;20107;-69
2022/07/17 03:18:02;;;;;;;4.65;2.78;;;;;;;13.97;57.01;99766.53;2624015;39;20430;-68
2022/07/17 03:20:32;;;;;;;9.10;3.38;;;;;;;14.00;57.09;99766.13;2623674;54;20045;-69
2022/07/17 03:23:04;;;;;;;6.68;3.40;;;;;;;13.99;56.88;99770.63;2623477;54;20030;-68
2022/07/17 03:25:34;;;;;;;7.80;4.25;;;;;;;14.08;56.80;99769.50;2623693;54;20045;-69
2022/07/17 03:28:03;;;;;;;3.20;2.28;;;;;;;14.13;56.55;99764.44;2624339;39;20448;-68
2022/07/17 03:30:33;;;;;;;3.45;2.33;;;;;;;14.22;56.51;99767.75;2623714;54;20033;-68
2022/07/17 03:33:03;;;;;;;5.20;2.45;;;;;;;14.31;56.07;99763.94;2623325;54;20038;-69
2022/07/17 03:35:32;;;;;;;2.95;2.30;;;;;;;14.19;56.25;99770.81;2623254;39;20430;-69
2022/07/17 03:38:04;;;;;;;4.20;2.67;;;;;;;14.12;56.65;99769.91;2623679;54;20027;-68
2022/07/17 03:40:34;;;;;;;4.60;2.78;;;;;;;14.07;56.86;99775.00;2622572;51;20645;-68
2022/07/17 03:43:04;;;;;;;5.50;3.88;;;;;;;13.96;56.72;99773.69;2623285;54;20026;-68
2022/07/17 03:45:33;;;;;;;4.15;2.60;;;;;;;13.87;57.14;99770.31;2622985;54;20237;-68
2022/07/17 03:48:03;;;;;;;4.75;2.50;;;;;;;13.78;56.94;99776.78;2622640;54;20038;-68
2022/07/17 03:50:33;;;;;;;3.95;2.72;;;;;;;13.74;57.21;99778.16;2621127;54;20034;-68
2022/07/17 03:53:05;;;;;;;5.68;2.45;;;;;;;13.68;57.26;99775.47;2623465;54;20041;-69
2022/07/17 03:55:35;;;;;;;4.72;2.30;;;;;;;13.62;57.75;99772.53;2623773;54;20031;-68
2022/07/17 03:58:04;;;;;;;3.67;2.83;;;;;;;13.55;57.54;99776.97;2623143;54;20042;-68
2022/07/17 04:03:23;;;;;;;4.60;2.47;;;;;;;13.57;57.66;99774.13;2613312;54;20041;-70
2022/07/17 04:05:53;;;;;;;5.22;2.30;;;;;;;13.52;57.25;99774.69;2618911;54;20025;-70
2022/07/17 04:08:25;;;;;;;6.03;2.20;;;;;;;13.47;57.75;99782.41;2618563;54;20019;-69
2022/07/17 04:10:54;;;;;;;3.10;2.38;;;;;;;13.49;57.53;99780.34;2620540;54;20022;-70
2022/07/17 04:13:24;;;;;;;4.32;2.30;;;;;;;13.48;57.64;99783.22;2620734;54;20545;-69
2022/07/17 04:15:59;;;;;;;2.28;2.08;;;;;;;13.51;57.91;99786.31;2619412;54;20122;-70
2022/07/17 04:18:31;;;;;;;3.13;2.10;;;;;;;13.58;57.67;99786.38;2619889;54;20034;-71
2022/07/17 04:21:05;;;;;;;6.18;2.53;;;;;;;13.69;57.57;99785.88;2619152;54;20030;-71
2022/07/17 04:23:38;;;;;;;;;;;;;;;13.74;57.74;99791.44;2618818;54;20023;-70
2022/07/17 04:26:09;;;;;;;4.03;2.30;;;;;;;13.76;57.27;99792.09;2618834;54;19953;-71
2022/07/17 04:28:40;;;;;;;4.75;2.60;;;;;;;13.78;57.78;99794.56;2619644;54;20042;-70
2022/07/17 04:31:10;;;;;;;5.25;2.45;;;;;;;13.83;57.60;99795.63;2619241;54;20165;-72
2022/07/17 04:33:39;;;;;;;4.43;2.40;;;;;;;13.93;57.51;99794.50;2617594;47;20073;-69
2022/07/17 04:36:09;;;;;;;2.45;2.20;;;;;;;14.09;57.49;99788.94;2618327;54;20023;-72
2022/07/17 04:38:41;;;;;;;3.45;2.30;;;;;;;14.19;56.90;99797.41;2618422;54;20022;-71
2022/07/17 04:41:11;;;;;;;4.88;3.00;;;;;;;14.33;56.63;99796.50;2618121;54;20086;-70
2022/07/17 04:43:41;;;;;;;6.47;4.63;;;;;;;14.43;56.27;99804.13;2617983;54;20045;-70
2022/07/17 04:46:10;;;;;;;3.25;2.47;;;;;;;14.54;56.08;99808.16;2617535;47;20045;-71
2022/07/17 04:48:40;;;;;;;6.22;2.97;;;;;;;14.59;56.18;99808.38;2618064;54;20038;-72
2022/07/17 04:51:09;;;;;;;3.60;2.28;;;;;;;14.60;56.07;99815.34;2617935;54;20150;-71
2022/07/17 04:53:42;;;;;;;2.95;2.25;;;;;;;14.68;55.65;99811.72;2616613;47;20023;-71
2022/07/17 04:56:11;;;;;;;5.18;2.72;;;;;;;14.69;55.62;99811.50;2616869;54;20030;-70
2022/07/17 04:58:41;;;;;;;4.43;2.38;;;;;;;14.81;55.20;99806.47;2616814;54;20166;-70
2022/07/17 05:01:10;;;;;;;4.55;2.78;;;;;;;14.94;55.23;99806.56;2616593;54;20078;-70
2022/07/17 05:03:40;;;;;;;3.63;2.33;;;;;;;14.95;54.94;99802.88;2621902;54;20079;-71
2022/07/17 05:06:10;;;;;;;3.95;2.53;;;;;;;15.07;54.62;99813.81;2626471;39;20510;-69
2022/07/17 05:08:42;;;;;;;6.35;2.75;;;;;;;15.17;54.33;99810.75;2625409;54;20034;-71
2022/07/17 05:11:12;;;;;;;2.50;2.28;;;;;;;15.19;53.90;99814.06;2626152;54;20026;-69
2022/07/17 05:13:41;;;;;;;5.47;2.10;;;;;;;15.15;53.66;99829.63;2626805;54;20038;-69
2022/07/17 05:16:11;;;;;;;3.60;2.40;;;;;;;15.28;53.91;99826.19;2624495;54;20035;-71
2022/07/17 05:18:41;;;;;;;3.65;2.47;;;;;;;15.35;53.50;99827.06;2617208;54;20058;-69
2022/07/17 05:21:10;;;;;;;2.33;2.10;;;;;;;15.26;53.67;99829.03;2616996;47;20033;-71
2022/07/17 05:23:43;;;;;;;3.60;2.58;;;;;;;15.37;53.66;99830.31;2617299;54;20045;-69
2022/07/17 05:26:12;;;;;;;3.60;2.50;;;;;;;15.45;54.05;99835.47;2618504;54;20027;-70
2022/07/17 05:28:42;;;;;;;2.55;2.35;;;;;;;15.57;53.58;99833.06;2618813;54;20023;-68
2022/07/17 05:31:11;;;;;;;5.80;4.00;;;;;;;15.58;53.47;99835.53;2618494;54;20041;-68
2022/07/17 05:33:41;;;;;;;6.25;2.28;;;;;;;15.65;53.07;99835.59;2617804;47;20569;-69
2022/07/17 05:36:11;;;;;;;3.05;2.30;;;;;;;15.66;53.14;99834.56;2618498;54;20026;-68
2022/07/17 05:38:43;;;;;;;3.40;2.55;;;;;;;15.73;52.35;99826.59;2618580;54;20030;-69
2022/07/17 05:41:13;;;;;;;4.18;2.33;;;;;;;15.80;52.87;99830.09;2618414;54;20057;-69
2022/07/17 05:43:43;;;;;;;4.28;2.00;;;;;;;15.90;52.54;99830.53;2617949;47;20034;-69
2022/07/17 05:46:12;;;;;;;4.45;2.20;;;;;;;16.05;51.74;99828.50;2619232;39;20458;-69
2022/07/17 05:48:42;;;;;;;4.03;2.00;;;;;;;16.15;51.64;99830.75;2618519;54;20030;-68
2022/07/17 05:51:12;;;;;;;4.25;1.92;;;;;;;16.31;51.40;99827.69;2622217;46;20119;-67
2022/07/17 05:53:51;;;;;;;3.35;2.13;;;;;;;16.55;50.88;99828.13;2625039;54;20042;-68
2022/07/17 05:56:21;;;;;;;5.70;2.10;;;;;;;16.77;50.72;99832.22;2625020;54;20030;-67
2022/07/17 05:58:50;;;;;;;3.17;1.75;;;;;;;16.80;49.25;99826.47;2623225;54;20036;-68
2022/07/17 06:01:20;;;;;;;4.75;1.63;;;;;;;16.73;48.81;99828.31;2618253;54;20038;-67
2022/07/17 06:03:50;;;;;;;2.20;1.60;;;;;;;16.71;48.44;99826.88;2618512;54;20022;-67
2022/07/17 06:06:20;;;;;;;3.00;1.63;;;;;;;16.74;48.78;99823.81;2624829;54;20098;-67
2022/07/17 06:08:53;;;;;;;7.43;3.08;;;;;;;16.91;48.08;99819.69;2620149;54;20034;-67
2022/07/17 06:11:22;;;;;;;4.30;1.80;;;;;;;16.95;47.91;99823.56;2618027;54;20069;-69
2022/07/17 06:13:58;;;;;;;5.03;2.63;;;;;;;17.03;47.44;99826.03;2618183;54;20030;-65
2022/07/17 06:16:28;;;;;;;9.95;5.55;;;;;;;17.06;47.33;99819.41;2618028;54;20074;-68
2022/07/17 06:18:58;;;;;;;7.18;2.45;;;;;;;17.15;47.60;99815.50;2617909;54;20030;-67
2022/07/17 06:21:27;;;;;;;6.40;4.35;;;;;;;17.41;47.22;99817.25;2617859;54;20039;-66
2022/07/17 06:24:00;;;;;;;3.47;2.45;;;;;;;17.60;46.96;99822.72;2618221;54;20029;-68
2022/07/17 06:26:30;;;;;;;3.58;2.20;;;;;;;17.59;46.69;99821.88;2618331;54;20031;-68
2022/07/17 06:28:59;;;;;;;3.50;2.28;;;;;;;17.78;46.46;99822.84;2618129;54;20055;-67
2022/07/17 06:31:29;;;;;;;5.28;2.00;;;;;;;17.88;45.33;99825.91;2618037;54;20042;-68
2022/07/17 06:34:00;;;;;;;3.75;1.95;;;;;;;17.88;45.85;99822.38;2617959;54;20045;-67
2022/07/17 06:36:29;;;;;;;6.35;2.50;;;;;;;18.07;45.50;99824.94;2618102;54;20038;-68
2022/07/17 06:39:01;;;;;;;6.53;2.22;;;;;;;18.23;44.46;99830.78;2618037;54;20034;-67
2022/07/17 06:41:31;;;;;;;3.78;1.83;;;;;;;18.27;44.35;99832.81;2617404;54;20035;-68
2022/07/17 06:44:01;;;;;;;5.28;1.77;;;;;;;18.40;44.83;99831.06;2618026;54;20057;-66
2022/07/17 06:46:30;;;;;;;4.97;2.28;;;;;;;18.60;44.44;99826.38;2617602;47;20026;-68
2022/07/17 06:49:00;;;;;;;4.50;1.98;;;;;;;18.65;43.65;99823.84;2617954;54;20034;-67
2022/07/17 06:51:30;;;;;;;3.35;1.80;;;;;;;18.67;43.84;99819.09;2618336;39;20426;-68
2022/07/17 06:54:02;;;;;;;2.00;1.45;;;;;;;18.72;43.33;99813.91;2618052;54;20569;-66
2022/07/17 06:56:32;;;;;;;4.43;2.03;;;;;;;18.68;43.06;99817.22;2617294;47;20034;-69
2022/07/17 06:59:02;;;;;;;5.20;2.30;;;;;;;18.81;43.35;99809.91;2617794;54;20045;-68
2022/07/17 07:01:32;;;;;;;3.17;1.90;;;;;;;19.05;43.27;99807.41;2617899;54;20042;-67
2022/07/17 07:04:09;;;;;;;4.43;1.85;;;;;;;19.19;42.23;99810.75;2617328;54;20033;-68
2022/07/17 07:06:39;;;;;;;3.97;1.80;;;;;;;19.15;43.02;99809.56;2617271;47;20018;-69
2022/07/17 07:09:11;;;;;;;6.40;2.03;;;;;;;19.16;42.13;99809.34;2619104;54;20046;-71
2022/07/17 07:11:45;;;;;;;3.00;1.48;;;;;;;19.19;42.82;99811.59;2619380;46;20068;-70
2022/07/17 07:14:15;;;;;;;3.30;1.45;;;;;;;19.23;42.35;99809.28;2620013;54;20046;-71
2022/07/17 07:16:44;;;;;;;3.35;1.85;;;;;;;19.33;42.49;99814.91;2619026;54;20034;-69
2022/07/17 07:19:14;;;;;;;4.53;3.00;;;;;;;19.47;42.53;99812.88;2618492;54;20041;-71
2022/07/17 07:21:44;;;;;;;4.78;2.17;;;;;;;19.70;41.99;99804.16;2618814;54;20030;-71
2022/07/17 07:24:16;;;;;;;4.85;1.60;;;;;;;19.95;41.07;99799.44;2618185;54;20030;-71
2022/07/17 07:26:48;;;;;;;14.40;9.27;;;;;;;20.09;40.87;99799.25;2617903;46;20023;-71
2022/07/17 07:29:18;;;;;;;6.55;3.15;;;;;;;20.17;40.03;99802.41;2618344;54;20031;-70
2022/07/17 07:31:48;;;;;;;4.72;1.80;;;;;;;20.26;39.55;99803.72;2618043;54;20057;-70
2022/07/17 07:34:17;;;;;;;3.47;1.60;;;;;;;20.38;39.55;99801.03;2618643;54;20533;-68
2022/07/17 07:36:47;;;;;;;3.22;1.35;;;;;;;20.50;39.53;99793.03;2618121;54;20037;-68
2022/07/17 07:39:19;;;;;;;3.95;2.08;;;;;;;20.69;39.15;99794.53;2617910;47;20086;-68
2022/07/17 07:41:49;;;;;;;2.65;1.38;;;;;;;20.86;38.28;99794.66;2618418;47;20042;-68
2022/07/17 07:44:19;;;;;;;3.53;1.73;;;;;;;20.93;37.78;99798.00;2617424;51;20034;-69
2022/07/17 07:47:00;;;;;;;5.07;1.55;;;;;;;20.99;37.87;99798.94;2618211;54;20031;-66
2022/07/17 07:49:30;;;;;;;3.15;1.75;;;;;;;21.00;37.83;99792.50;2618202;54;20094;-66
2022/07/17 07:52:08;;;;;;;5.05;2.28;;;;;;;21.07;37.84;99795.91;2617944;54;20045;-67
2022/07/17 07:54:41;;;;;;;5.72;2.40;;;;;;;21.14;37.99;99799.25;2618094;54;20034;-66
2022/07/17 07:57:10;;;;;;;3.25;1.85;;;;;;;21.18;37.41;99784.28;2618452;54;20034;-68
2022/07/17 07:59:40;;;;;;;3.88;1.83;;;;;;;21.34;37.14;99788.13;2617455;47;20030;-68
2022/07/17 08:02:11;;;;;;;2.42;1.27;;;;;;;21.45;36.73;99798.03;2617913;54;20031;-67
2022/07/17 08:04:41;;;;;;;3.17;1.42;;;;;;;21.52;35.83;99798.72;2619224;39;20405;-67
2022/07/17 08:07:10;;;;;;;5.25;1.67;;;;;;;21.47;35.66;99800.47;2618663;39;20414;-69
2022/07/17 08:09:45;;;;;;;2.97;1.70;;;;;;;21.67;35.53;99805.44;2617994;54;20038;-71
2022/07/17 08:12:14;;;;;;;1.92;1.30;;;;;;;21.87;34.50;99803.09;2618080;54;20038;-69
2022/07/17 08:15:05;;;;;;;3.40;1.67;;;;;;;21.94;34.43;99805.66;2618324;54;20069;-68
2022/07/17 08:17:34;;;;;;;4.40;1.13;;;;;;;22.01;33.61;99800.94;2618089;54;20057;-68
2022/07/17 08:20:05;;;;;;;2.28;1.35;;;;;;;22.04;33.62;99805.81;2618292;54;20042;-70
2022/07/17 08:22:42;;;;;;;3.47;1.30;;;;;;;22.05;33.50;99804.78;2623173;54;20040;-69
2022/07/17 08:25:36;;;;;;;2.70;1.20;;;;;;;22.21;33.36;99803.19;2623252;47;20027;-69
2022/07/17 08:28:07;;;;;;;2.35;1.33;;;;;;;22.18;33.71;99795.59;2623025;54;20026;-69
2022/07/17 08:30:37;;;;;;;2.38;1.17;;;;;;;22.37;33.10;99804.22;2620414;47;20034;-70
2022/07/17 08:33:08;;;;;;;2.58;1.27;;;;;;;22.45;32.47;99801.97;2620722;54;20030;-71
2022/07/17 08:35:38;;;;;;;2.75;1.50;;;;;;;22.54;32.81;99798.84;2618487;54;20053;-68
2022/07/17 08:38:08;;;;;;;1.90;1.30;;;;;;;22.60;33.19;99795.97;2618162;54;20138;-71
2022/07/17 08:40:43;;;;;;;10.50;7.30;;;;;;;22.82;33.07;99798.72;2617779;54;20030;-68
2022/07/17 08:43:13;;;;;;;2.38;1.45;;;;;;;22.86;32.24;99786.38;2617541;47;20546;-69
2022/07/17 08:45:43;;;;;;;3.00;1.83;;;;;;;22.91;32.37;99793.75;2618551;54;20045;-70
2022/07/17 08:48:19;;;;;;;5.20;1.67;;;;;;;23.05;32.02;99792.31;2619421;54;20110;-70
2022/07/17 08:50:50;;;;;;;3.65;1.25;;;;;;;23.01;31.94;99799.25;2619174;54;20026;-70
2022/07/17 08:53:20;;;;;;;3.33;2.13;;;;;;;22.99;31.76;99801.41;2618478;54;20038;-70
2022/07/17 08:55:53;;;;;;;3.53;1.40;;;;;;;23.01;31.82;99803.84;2618601;54;20034;-70
2022/07/17 08:58:22;;;;;;;1.67;1.17;;;;;;;23.19;32.00;99798.16;2617896;54;20118;-68
2022/07/17 09:00:53;;;;;;;4.65;1.33;;;;;;;23.42;30.23;99795.16;2623287;31;20499;-70
2022/07/17 09:03:23;;;;;;;3.88;1.20;;;;;;;23.41;30.15;99803.53;2625824;39;20434;-70
2022/07/17 09:05:53;;;;;;;2.38;1.15;;;;;;;23.35;30.19;99796.44;2625038;54;20034;-70
2022/07/17 09:08:25;;;;;;;4.72;1.27;;;;;;;23.37;30.60;99792.41;2624346;54;20030;-70
2022/07/17 09:10:57;;;;;;;1.67;1.38;;;;;;;23.39;30.92;99786.75;2624871;47;20026;-68
2022/07/17 09:13:30;;;;;;;3.28;1.80;;;;;;;23.51;30.45;99779.34;2623286;54;20564;-70
2022/07/17 09:16:01;;;;;;;4.38;1.85;;;;;;;23.49;31.10;99765.31;2618978;54;20038;-69
2022/07/17 09:18:31;;;;;;;3.28;1.38;;;;;;;23.54;30.33;99767.22;2618790;54;20031;-68
2022/07/17 09:21:01;;;;;;;4.38;1.20;;;;;;;23.63;30.32;99757.59;2618126;54;20038;-69
2022/07/17 09:23:30;;;;;;;9.23;1.40;;;;;;;23.59;29.79;99756.47;2617940;54;20030;-69
2022/07/17 09:26:03;;;;;;;1.77;1.45;;;;;;;23.75;29.80;99758.28;2617517;54;20576;-68
2022/07/17 09:28:34;;;;;;;1.85;1.10;;;;;;;23.87;29.83;99752.72;2616953;47;20031;-67
2022/07/17 09:31:04;;;;;;;3.22;1.75;;;;;;;23.86;30.03;99751.09;2617572;54;20038;-69
2022/07/17 09:33:36;;;;;;;1.88;1.27;;;;;;;23.91;30.31;99743.03;2617542;54;20049;-67
2022/07/17 09:36:14;;;;;;;2.60;1.23;;;;;;;23.97;29.73;99742.03;2617553;54;20027;-67
2022/07/17 09:38:45;;;;;;;3.13;1.30;;;;;;;24.00;29.80;99744.19;2617674;54;20601;-67
2022/07/17 09:41:20;;;;;;;2.53;1.50;;;;;;;24.04;29.61;99749.91;2617403;54;20165;-67
2022/07/17 09:43:53;;;;;;;6.00;3.65;;;;;;;24.13;29.58;99753.78;2616964;54;20029;-67
2022/07/17 09:46:26;;;;;;;4.22;2.17;;;;;;;24.27;29.19;99741.44;2620655;54;20038;-67
2022/07/17 09:48:59;;;;;;;1.88;1.60;;;;;;;24.51;28.22;99743.78;2620710;54;20043;-67
2022/07/17 09:51:31;;;;;;;2.60;2.03;;;;;;;24.50;28.80;99736.75;2622702;39;20494;-67
2022/07/17 09:54:03;;;;;;;3.43;1.63;;;;;;;24.43;28.26;99740.50;2621551;54;20572;-66
2022/07/17 09:56:39;;;;;;;3.53;1.33;;;;;;;24.39;28.13;99739.38;2621922;54;20295;-66
2022/07/17 09:59:11;;;;;;;2.38;1.38;;;;;;;24.31;28.81;99752.53;2622015;54;20580;-66
2022/07/17 10:01:43;;;;;;;2.13;1.73;;;;;;;24.53;28.75;99747.84;2621996;54;20030;-66
2022/07/17 10:04:14;;;;;;;5.70;4.82;;;;;;;24.61;28.09;99751.94;2622278;54;20045;-66
2022/07/17 10:06:45;;;;;;;2.47;1.83;;;;;;;24.71;28.40;99744.72;2622304;54;20033;-66
2022/07/17 10:09:14;;;;;;;2.65;1.63;;;;;;;24.88;27.31;99749.13;2622142;54;20026;-68
2022/07/17 10:11:47;;;;;;;2.50;1.73;;;;;;;25.01;26.63;99737.81;2621355;39;20440;-67
2022/07/17 10:14:19;;;;;;;3.83;3.35;;;;;;;25.14;26.55;99742.75;2622110;54;20035;-67
2022/07/17 10:16:48;;;;;;;4.38;1.63;;;;;;;25.15;26.34;99747.09;2622578;54;20030;-67
2022/07/17 10:19:20;;;;;;;1.55;1.08;;;;;;;25.01;26.30;99740.50;2621998;54;20035;-69
2022/07/17 10:21:59;;;;;;;3.08;1.58;;;;;;;25.09;26.24;99748.16;2622120;54;20035;-66
2022/07/17 10:24:31;;;;;;;1.90;1.50;;;;;;;25.31;25.12;99750.66;2622512;54;20031;-66
2022/07/17 10:27:04;;;;;;;4.35;1.77;;;;;;;25.25;25.00;99753.63;2622239;54;20063;-67
2022/07/17 10:29:36;;;;;;;1.20;0.95;;;;;;;25.24;25.00;99755.50;2622066;54;20576;-67
2022/07/17 10:32:17;;;;;;;2.53;1.50;;;;;;;25.15;25.64;99749.00;2622620;31;20510;-67
2022/07/17 10:34:49;;;;;;;4.75;4.03;;;;;;;25.37;24.89;99752.28;2622470;54;20070;-66
2022/07/17 10:37:24;;;;;;;8.30;2.78;;;;;;;25.52;24.33;99754.22;2622070;54;20022;-67
2022/07/17 10:40:03;;;;;;;2.60;1.10;;;;;;;25.31;24.50;99741.72;2622339;54;20039;-69
2022/07/17 10:42:47;;;;;;;1.90;1.40;;;;;;;25.42;24.63;99755.00;2620590;54;20038;-69
2022/07/17 10:45:18;;;;;;;3.22;1.60;;;;;;;25.50;24.72;99750.97;2618587;54;20039;-69
2022/07/17 10:47:54;;;;;;;1.95;1.38;;;;;;;25.57;24.93;99743.41;2618265;54;20159;-69
2022/07/17 10:50:27;;;;;;;4.35;1.13;;;;;;;25.61;24.65;99738.28;2618032;54;20030;-69
2022/07/17 10:53:08;;;;;;;3.63;1.33;;;;;;;25.52;24.65;99746.13;2618189;54;20026;-68
2022/07/17 10:55:41;;;;;;;3.55;1.15;;;;;;;25.57;24.93;99742.59;2618186;54;20038;-69
2022/07/17 10:58:22;;;;;;;2.47;1.30;;;;;;;25.68;24.52;99745.06;2622210;54;20030;-69
2022/07/17 11:01:17;;;;;;;4.50;1.48;;;;;;;25.51;24.22;99743.66;2618028;54;20053;-69
2022/07/17 11:03:50;;;;;;;1.40;0.93;;;;;;;25.59;24.09;99735.81;2617740;54;20026;-70
2022/07/17 11:06:22;;;;;;;4.07;1.00;;;;;;;25.78;23.77;99743.47;2618092;54;20022;-70
2022/07/17 11:08:54;;;;;;;2.53;1.00;;;;;;;25.93;23.94;99736.16;2617844;54;20057;-69
2022/07/17 11:11:25;;;;;;;1.20;1.08;;;;;;;26.06;24.01;99729.38;2617429;52;20034;-69
2022/07/17 11:14:13;;;;;;;2.97;1.20;;;;;;;26.21;23.32;99727.72;2617948;54;20061;-70
2022/07/17 11:16:48;;;;;;;4.57;1.45;;;;;;;26.26;23.30;99725.03;2618021;54;20027;-70
2022/07/17 11:19:24;;;;;;;2.30;1.00;;;;;;;26.14;23.67;99725.31;2618119;54;20522;-69
2022/07/17 11:21:55;;;;;;;2.20;1.27;;;;;;;26.37;23.15;99730.16;2618045;54;20608;-70
2022/07/17 11:24:26;;;;;;;1.33;1.23;;;;;;;26.49;22.49;99727.16;2618094;54;20047;-69
2022/07/17 11:26:55;;;;;;;2.60;1.02;;;;;;;26.52;22.35;99723.91;2618034;54;20069;-68
2022/07/17 11:29:28;;;;;;;2.65;1.13;;;;;;;26.53;22.35;99725.53;2617793;54;20034;-68
2022/07/17 11:31:58;;;;;;;2.65;1.00;;;;;;;26.59;21.93;99729.84;2617912;54;20039;-69
2022/07/17 11:34:28;;;;;;;1.25;1.00;;;;;;;26.57;21.78;99726.59;2618090;54;20037;-69
2022/07/17 11:37:03;;;;;;;2.35;1.20;;;;;;;26.51;22.07;99721.47;2618130;54;20053;-70
2022/07/17 11:39:41;;;;;;;2.50;1.20;;;;;;;26.58;21.74;99716.59;2618352;54;20027;-68
2022/07/17 11:42:11;;;;;;;1.63;1.38;;;;;;;26.69;22.02;99718.16;2617985;54;20026;-69
2022/07/17 11:44:44;;;;;;;2.75;1.20;;;;;;;26.88;22.18;99726.50;2618017;54;20026;-70
2022/07/17 11:47:21;;;;;;;2.92;2.17;;;;;;;26.91;21.42;99709.69;2618123;54;20064;-68
2022/07/17 11:49:51;;;;;;;30.40;21.48;;;;;;;27.07;21.87;99719.38;2618202;46;20050;-69
2022/07/17 11:52:23;;;;;;;11.18;8.25;;;;;;;27.19;21.41;99710.09;2618079;54;20088;-70
2022/07/17 11:54:59;;;;;;;9.55;6.93;;;;;;;27.32;20.82;99704.06;2617736;54;20037;-70
2022/07/17 11:57:29;;;;;;;141.15;74.20;;;;;;;27.44;20.75;99703.72;2622331;54;20037;-70